Decoded Metar for UGTB (TBILISI/NOVO-AL in GEORGIA) (IATA:N/A) | Meteo·Mobile Aviation Weather
aviador You're here:

UGTB Decoded Metar

TBILISI/NOVO-AL in GEORGIA
Report Time2019-01-18 11:00:00
UTC Time2019-01-18 11:14:20
Flight Rules vfr VFR
Wind310° at 27 kt
W.Decomp.*RWY 31: 26.9 kt HW 1.9 kt LCW
W.Rank310° ranks 1
Current wind is above 310° avg. (17.5)
Visibility9999 m
Phenomena:N/A
Clouds:N/A
Expected CloudBase > 4,800 ft AGL from Temp-Dew spread
CeilingNone
Temp08°C (ISA -4)
Dew Point-4°C (43% RH)
AAT-4.2°C
QNH1020 hPa
Density Alt1,004 ft
Elevation1,624 ft
Report Wrong Elevation
Raw Report
METAR UGTB 181100Z 31027KT CAVOK 08/M04 Q1020 NOSIG=

Extra information for UGTB:More info

Metar Taf Metar & Taf Last 4 Metars F.Rules Stats Wind Profile Meteogram Temp Stats Airport Information Weather charts Add Link Nearby VenuesMetar ALERT Operation Metar Decoded Social comments